CheckWX is a tool to help pilots better visualize weather data.  It is not intended as a substitute for an official pre-flight weather briefing.

07:42:43 UTC

KGGP METAR
Logansport / Cass County Airport
Logansport, Indiana, USA
Current

28 mins ago

KGGP 260715Z AUTO 02009G14KT 5SM -SN OVC009 00/00 A2996 RMK AO2
Observed
Feb-26 @ 07:15 UTC
Wind
  • 020° at 9 KTS
  • Gusting to 14 KTS
Visibility
5 SM
Flight Rules
IFR
Conditions
Light Snow
Cloud Levels
  • Overcast at 900' AGL
Temperature
C / 32°F
Dewpoint
C / 32°F
Humidity
100%
Altimeter
29.96" Hg
Pressure
1014.52 hPa
Previous

48 mins ago

KGGP 260655Z AUTO 03012G15KT 5SM -SN BKN007 OVC011 00/00 A2996 RMK AO2
Observed
Feb-26 @ 06:55 UTC
Wind
  • 030° at 12 KTS
  • Gusting to 15 KTS
Visibility
5 SM
Flight Rules
IFR
Conditions
Light Snow
Cloud Levels
  • Broken at 700' AGL
  • Overcast at 1,100' AGL
Temperature
C / 32°F
Dewpoint
C / 32°F
Humidity
100%
Altimeter
29.96" Hg
Pressure
1014.52 hPa
Previous

1 hour ago

KGGP 260635Z AUTO 02010G15KT 5SM -SN OVC007 00/00 A2996 RMK AO2
Observed
Feb-26 @ 06:35 UTC
Wind
  • 020° at 10 KTS
  • Gusting to 15 KTS
Visibility
5 SM
Flight Rules
IFR
Conditions
Light Snow
Cloud Levels
  • Overcast at 700' AGL
Temperature
C / 32°F
Dewpoint
C / 32°F
Humidity
100%
Altimeter
29.96" Hg
Pressure
1014.52 hPa